Flight Track Log - Related Links

Times and Time Zones

All times are in EDT time to prevent confusion due to time zone crossing. See the CHQ5098 flight status page for this flight to view local times or setup timezone preferences in your user account.

Time Position Orientation Groundspeed Altitude Reporting Facility
EDT Latitude Longitude Course Direction KTS MPH feet Rate Location/Type
Mon 09:55:20 PM 42.0383 -87.8319 352° North 206 237 4,000  Level Chicago Center
Mon 09:55:58 PM 42.0833 -87.7833 39° Northeast 267 307 5,000 577 Climbing Chicago TRACON
Mon 09:56:00 PM 42.1918 -87.9709 340° North  Level FlightAware Approximate
Mon 09:57:00 PM 42.2668 -87.9959 350° North  Level FlightAware Approximate
Mon 09:57:04 PM 42.1667 -87.7833 360° North 288 331 5,000  Level Chicago TRACON
Mon 09:57:23 PM 42.1908 -87.7908 347° North 290 334 5,000 1,650 Level Chicago Center
Mon 09:58:00 PM 42.3431 -88.0149 350° North  Level FlightAware Approximate
Mon 09:58:24 PM 42.2644 -87.8269 340° North 286 329 7,200  Level Chicago Center
Mon 09:59:00 PM 42.4161 -88.0497 340° North  Level FlightAware Approximate
Mon 09:59:26 PM 42.3414 -87.8261 360° North 295 339 10,000  Level Chicago Center
Mon 10:00:00 PM 42.4983 -88.0663 352° North  Level FlightAware Approximate
Mon 10:00:28 PM 42.4267 -87.8325 357° North 304 350 12,600  Level Chicago Center
Mon 10:02:31 PM 42.6231 -87.8617 354° North 336 387 16,700 1,751 Climbing Chicago Center
Mon 10:03:33 PM 42.7247 -87.8744 355° North 362 417 18,000 634 Climbing Chicago Center
Mon 10:04:34 PM 42.8319 -87.8906 354° North 384 442 18,000  Level Chicago Center
Mon 10:05:36 PM 42.9442 -87.9058 354° North 402 463 18,000  Level Chicago Center
Mon 10:06:17 PM 43.0333 -87.9167 355° North 423 487 18,000  Level KMKE
Mon 10:07:17 PM 43.1500 -87.9333 354° North 412 474 18,000 -220 Level KMKE
Mon 10:07:39 PM 43.1911 -87.9406 353° North 413 475 17,700 -1,214 Descending Chicago Center
Mon 10:08:41 PM 43.3050 -87.9558 354° North 414 476 16,300 -1,463 Descending Chicago Center
Mon 10:09:42 PM 43.4108 -87.9717 354° North 390 449 14,700 -1,463 Descending Chicago Center
Mon 10:10:44 PM 43.5125 -87.9864 354° North 374 430 13,300 -1,306 Descending Chicago Center
Mon 10:11:46 PM 43.6128 -88.0011 354° North 366 421 12,000 -1,389 Descending Chicago Center
Mon 10:12:19 PM 43.6783 -88.0108 354° North 363 418 11,100 -1,263 Descending Minneapolis Center
Mon 10:13:21 PM 43.7758 -88.0267 353° North 356 410 10,000 -537 Descending Minneapolis Center
Mon 10:14:22 PM 43.8711 -88.0422 353° North 348 400 10,000  Level Minneapolis Center
Mon 10:15:24 PM 43.9644 -88.0583 353° North 341 392 10,000 -878 Level Minneapolis Center
Mon 10:16:25 PM 44.0431 -88.0708 353° North 294 338 8,200 -1,902 Descending Minneapolis Center
Mon 10:17:27 PM 44.1231 -88.0850 353° North 289 333 6,100 -2,049 Descending Minneapolis Center
Mon 10:18:28 PM 44.2164 -88.1011 353° North 290 334 4,000 -1,756 Descending Minneapolis Center
Mon 10:19:30 PM 44.2922 -88.1194 350° North 283 326 2,500 -732 Descending Minneapolis Center
Mon 10:20:31 PM 44.3664 -88.1400 349° North 277 319 2,500 -244 Level Minneapolis Center
Mon 10:21:33 PM 44.4222 -88.1358 North 250 288 2,000 -484 Descending Minneapolis Center

Login

Don't have an account? Register now (free) for customized features, flight alerts, and more!